Time;durP1;ratioP1;P1;durP2;ratioP2;P2;SDS_P1;SDS_P2;PMS_P1;PMS_P2;Temp;Humidity;BMP_temperature;BMP_pressure;BME280_temperature;BME280_humidity;BME280_pressure;Samples;Min_cycle;Max_cycle;Signal;HPM_P1;HPM_P2
2023/07/05 00:00:24;;;;;;;1.88;1.77;;;22.20;69.60;;;;;;5048410;28;20403;-74
2023/07/05 00:02:51;;;;;;;1.65;1.55;;;22.10;69.50;;;;;;5050352;28;20049;-75
2023/07/05 00:05:17;;;;;;;1.80;1.70;;;22.10;69.60;;;;;;5066329;28;20032;-74
2023/07/05 00:07:42;;;;;;;1.23;1.23;;;22.20;69.40;;;;;;5047371;28;20476;-74
2023/07/05 00:10:08;;;;;;;1.48;1.45;;;22.20;69.50;;;;;;5050523;28;20044;-75
2023/07/05 00:12:34;;;;;;;1.15;1.15;;;22.20;69.60;;;;;;5059836;28;20640;-74
2023/07/05 00:14:59;;;;;;;1.95;1.83;;;22.20;69.50;;;;;;5049280;28;20418;-75
2023/07/05 00:17:25;;;;;;;1.55;1.50;;;22.10;69.40;;;;;;5046186;28;20040;-74
2023/07/05 00:19:51;;;;;;;1.60;1.50;;;22.10;69.40;;;;;;5029060;28;20102;-74
2023/07/05 00:22:17;;;;;;;1.60;1.50;;;22.10;69.40;;;;;;5052670;28;20049;-75
2023/07/05 00:24:42;;;;;;;1.48;1.40;;;22.10;69.40;;;;;;5055332;28;20053;-75
2023/07/05 00:27:08;;;;;;;1.50;1.40;;;22.10;69.40;;;;;;5047919;28;20558;-75
2023/07/05 00:29:33;;;;;;;1.25;1.25;;;22.10;69.20;;;;;;5038241;28;20502;-75
2023/07/05 00:31:59;;;;;;;1.60;1.50;;;22.10;69.20;;;;;;5028839;28;20041;-75
2023/07/05 00:34:24;;;;;;;1.20;1.20;;;22.20;69.40;;;;;;5050323;28;20131;-75
2023/07/05 00:36:50;;;;;;;1.30;1.30;;;22.10;69.20;;;;;;5051198;28;20040;-75
2023/07/05 00:39:15;;;;;;;1.67;1.58;;;22.20;69.40;;;;;;5051868;28;20048;-74
2023/07/05 00:41:41;;;;;;;1.17;1.17;;;22.10;69.30;;;;;;5047003;28;20084;-75
2023/07/05 00:44:06;;;;;;;1.23;1.23;;;22.10;69.20;;;;;;5047580;28;20124;-75
2023/07/05 00:46:32;;;;;;;1.30;1.30;;;22.20;69.30;;;;;;5032782;28;20090;-74
2023/07/05 00:49:06;;;;;;;1.70;1.60;;;22.10;69.30;;;;;;5050994;28;20580;-75
2023/07/05 00:51:46;;;;;;;1.40;1.30;;;22.10;69.30;;;;;;5047332;28;20065;-74
2023/07/05 00:54:11;;;;;;;1.40;1.40;;;22.10;69.40;;;;;;5052729;28;20043;-74
2023/07/05 00:56:51;;;;;;;1.48;1.38;;;22.10;70.10;;;;;;5050269;28;20037;-74
2023/07/05 00:59:16;;;;;;;1.65;1.55;;;22.10;69.30;;;;;;5037581;28;20045;-74
2023/07/05 01:01:42;;;;;;;1.52;1.45;;;22.10;69.30;;;;;;5043866;28;20141;-74
2023/07/05 01:04:07;;;;;;;1.40;1.35;;;22.10;70.10;;;;;;5037933;28;20093;-75
2023/07/05 01:06:33;;;;;;;1.23;1.23;;;22.10;69.20;;;;;;5006844;28;20091;-74
2023/07/05 01:08:59;;;;;;;1.17;1.17;;;22.10;69.20;;;;;;5032003;28;20033;-75
2023/07/05 01:11:33;;;;;;;1.00;1.00;;;22.10;69.20;;;;;;5064455;28;20441;-74
2023/07/05 01:14:17;;;;;;;1.13;1.13;;;22.10;69.10;;;;;;5060217;28;20384;-75
2023/07/05 01:16:49;;;;;;;0.93;0.93;;;22.10;69.10;;;;;;5061870;28;20114;-75
2023/07/05 01:19:20;;;;;;;0.98;0.98;;;22.10;69.10;;;;;;5040228;28;20541;-75
2023/07/05 01:22:08;;;;;;;1.25;1.25;;;22.10;69.00;;;;;;5028456;28;20044;-74
2023/07/05 01:24:48;;;;;;;1.00;0.95;;;22.10;69.00;;;;;;5062617;28;20048;-74
2023/07/05 01:27:36;;;;;;;1.55;1.50;;;22.10;69.00;;;;;;5041199;28;20107;-74
2023/07/05 01:30:29;;;;;;;1.10;1.10;;;22.10;69.00;;;;;;5032025;28;20123;-75
2023/07/05 01:33:09;;;;;;;1.10;1.10;;;22.10;69.00;;;;;;5049082;28;20143;-75
2023/07/05 01:35:46;;;;;;;0.80;0.80;;;22.10;69.00;;;;;;5048969;28;20036;-74
2023/07/05 01:38:11;;;;;;;1.77;1.00;;;22.10;68.80;;;;;;5048284;28;20521;-74
2023/07/05 01:40:43;;;;;;;1.00;1.00;;;22.10;68.90;;;;;;5063155;28;20049;-75
2023/07/05 01:43:12;;;;;;;1.27;1.27;;;22.10;68.90;;;;;;5028623;28;20049;-75
2023/07/05 01:45:59;;;;;;;1.23;1.20;;;22.10;68.90;;;;;;5052285;28;20050;-74
2023/07/05 01:48:53;;;;;;;1.00;1.00;;;22.10;68.80;;;;;;5035313;28;20048;-74
2023/07/05 01:51:49;;;;;;;1.10;1.10;;;22.10;68.80;;;;;;5030312;28;20045;-75
2023/07/05 01:54:32;;;;;;;1.00;1.00;;;22.00;68.70;;;;;;5049993;28;20292;-75
2023/07/05 01:57:20;;;;;;;1.00;1.00;;;22.10;68.70;;;;;;5044327;28;20406;-75
2023/07/05 02:00:11;;;;;;;0.90;0.90;;;22.00;68.70;;;;;;5049800;28;20060;-75
2023/07/05 02:02:41;;;;;;;0.98;0.98;;;22.00;68.70;;;;;;5056877;28;20041;-75
2023/07/05 02:05:07;;;;;;;0.85;0.85;;;22.00;68.70;;;;;;5036954;28;20045;-74
2023/07/05 02:07:33;;;;;;;1.23;1.23;;;22.00;68.60;;;;;;5045280;28;20076;-74
2023/07/05 02:09:59;;;;;;;1.02;1.02;;;22.00;68.60;;;;;;5047788;28;20041;-74
2023/07/05 02:12:25;;;;;;;0.90;0.90;;;22.00;68.60;;;;;;5033075;28;20120;-75
2023/07/05 02:14:51;;;;;;;1.30;1.20;;;22.00;68.60;;;;;;5033123;28;20033;-74
2023/07/05 02:17:18;;;;;;;1.20;1.10;;;22.00;68.50;;;;;;5031167;28;20048;-75
2023/07/05 02:19:43;;;;;;;0.90;0.90;;;22.00;68.50;;;;;;5035558;28;21411;-74
2023/07/05 02:22:09;;;;;;;0.90;0.90;;;22.00;68.50;;;;;;5033655;28;20055;-75
2023/07/05 02:24:34;;;;;;;0.93;0.93;;;22.00;68.50;;;;;;5037285;28;20116;-75
2023/07/05 02:27:00;;;;;;;0.90;0.90;;;22.00;68.50;;;;;;5031090;28;20041;-75
2023/07/05 02:29:26;;;;;;;0.77;0.77;;;22.00;68.50;;;;;;4988110;28;20045;-75
2023/07/05 02:31:51;;;;;;;1.00;1.00;;;22.00;68.50;;;;;;5036992;28;20118;-74
2023/07/05 02:34:17;;;;;;;1.08;1.05;;;22.00;69.30;;;;;;5035244;28;20046;-74
2023/07/05 02:36:43;;;;;;;1.02;1.00;;;22.00;68.40;;;;;;5033673;28;20052;-74
2023/07/05 02:39:08;;;;;;;0.90;0.90;;;22.00;68.40;;;;;;5032255;28;20033;-75
2023/07/05 02:41:34;;;;;;;1.00;1.00;;;22.00;68.30;;;;;;5035443;28;20102;-74
2023/07/05 02:43:59;;;;;;;0.93;0.93;;;22.00;68.40;;;;;;5048295;28;20048;-74
2023/07/05 02:46:26;;;;;;;0.90;0.90;;;22.00;68.40;;;;;;5057503;28;20076;-74
2023/07/05 02:48:57;;;;;;;0.93;0.93;;;22.00;68.30;;;;;;5057071;28;20384;-74
2023/07/05 02:51:24;;;;;;;0.90;0.90;;;22.00;68.40;;;;;;5034321;28;20518;-75
2023/07/05 02:53:49;;;;;;;1.30;1.20;;;22.00;68.30;;;;;;5051387;28;20040;-74
2023/07/05 02:56:15;;;;;;;0.95;0.70;;;22.00;68.20;;;;;;5043965;28;20056;-74
2023/07/05 02:58:41;;;;;;;0.73;0.73;;;22.00;68.30;;;;;;5032903;28;20052;-74
2023/07/05 03:01:06;;;;;;;0.80;0.80;;;22.00;68.30;;;;;;5037365;28;20545;-74
2023/07/05 03:03:32;;;;;;;0.80;0.80;;;22.00;68.20;;;;;;5032947;28;20059;-74
2023/07/05 03:05:58;;;;;;;0.85;0.85;;;22.00;68.20;;;;;;5031039;28;20702;-75
2023/07/05 03:08:25;;;;;;;1.00;1.00;;;22.00;68.20;;;;;;5029597;28;20128;-74
2023/07/05 03:10:54;;;;;;;0.80;0.80;;;22.00;68.20;;;;;;5039948;28;20068;-74
2023/07/05 03:13:21;;;;;;;0.75;0.75;;;22.00;68.20;;;;;;5037546;28;20121;-75
2023/07/05 03:15:47;;;;;;;0.68;0.68;;;22.00;68.20;;;;;;5036086;28;20053;-74
2023/07/05 03:18:12;;;;;;;0.80;0.80;;;22.00;68.20;;;;;;5032352;28;20068;-75
2023/07/05 03:20:38;;;;;;;0.80;0.80;;;21.90;68.10;;;;;;5047697;28;20052;-74
2023/07/05 03:23:04;;;;;;;0.90;0.90;;;21.90;68.00;;;;;;5032680;28;20038;-75
2023/07/05 03:25:30;;;;;;;0.70;0.70;;;22.00;68.00;;;;;;5046359;28;20052;-75
2023/07/05 03:27:55;;;;;;;0.75;0.75;;;22.00;68.00;;;;;;5033696;28;20127;-75
2023/07/05 03:30:22;;;;;;;0.77;0.77;;;21.90;67.80;;;;;;5049383;28;20053;-75
2023/07/05 03:32:49;;;;;;;0.70;0.70;;;21.90;67.70;;;;;;5037340;28;20048;-74
2023/07/05 03:35:15;;;;;;;0.63;0.63;;;21.90;67.80;;;;;;5016406;28;20079;-75
2023/07/05 03:37:40;;;;;;;0.70;0.70;;;22.00;67.90;;;;;;5033106;28;20075;-74
2023/07/05 03:40:07;;;;;;;0.90;0.90;;;21.90;67.80;;;;;;5038878;28;20596;-75
2023/07/05 03:42:33;;;;;;;0.93;0.93;;;22.00;67.90;;;;;;4698335;28;10001185;-75
2023/07/05 03:44:58;;;;;;;0.70;0.70;;;21.90;67.70;;;;;;5035316;28;20059;-76
2023/07/05 03:47:24;;;;;;;0.70;0.70;;;22.00;68.20;;;;;;5042355;28;20060;-75
2023/07/05 03:49:49;;;;;;;0.70;0.70;;;22.00;67.80;;;;;;5022142;28;20415;-75
2023/07/05 03:52:15;;;;;;;0.70;0.70;;;21.90;67.70;;;;;;5032097;28;20105;-75
2023/07/05 03:54:40;;;;;;;0.80;0.80;;;21.90;67.70;;;;;;5031325;28;20041;-75
2023/07/05 03:57:07;;;;;;;1.17;0.88;;;22.00;67.70;;;;;;5030687;28;20376;-75
2023/07/05 03:59:33;;;;;;;0.73;0.73;;;21.90;67.60;;;;;;5030805;28;20033;-75
2023/07/05 04:01:59;;;;;;;0.70;0.70;;;21.90;68.40;;;;;;5028783;28;20072;-75
2023/07/05 04:04:25;;;;;;;1.45;0.75;;;21.90;67.50;;;;;;5025530;28;20139;-75
2023/07/05 04:06:50;;;;;;;1.67;0.75;;;21.90;67.50;;;;;;5048059;28;20495;-75
2023/07/05 04:09:16;;;;;;;0.82;0.50;;;21.90;67.50;;;;;;5025162;28;20144;-74
2023/07/05 04:11:42;;;;;;;0.80;0.80;;;21.90;67.50;;;;;;5040543;28;20040;-75
2023/07/05 04:14:07;;;;;;;0.73;0.60;;;22.00;67.40;;;;;;5025844;28;20048;-75
2023/07/05 04:16:33;;;;;;;0.40;0.40;;;21.90;67.40;;;;;;5028737;28;20038;-75
2023/07/05 04:18:58;;;;;;;0.50;0.50;;;21.90;67.20;;;;;;5049867;28;20040;-75
2023/07/05 04:21:24;;;;;;;0.52;0.52;;;21.90;67.20;;;;;;5047156;28;20099;-75
2023/07/05 04:23:50;;;;;;;0.60;0.60;;;21.90;67.00;;;;;;5045377;28;20052;-75
2023/07/05 04:26:24;;;;;;;0.60;0.60;;;21.90;66.90;;;;;;5046236;28;20102;-75
2023/07/05 04:28:49;;;;;;;;;;;21.90;66.70;;;;;;5050124;28;20053;-75
2023/07/05 04:31:18;;;;;;;0.50;0.50;;;21.90;66.60;;;;;;5046952;28;19935;-75
2023/07/05 04:33:44;;;;;;;0.63;0.63;;;21.90;66.70;;;;;;5052192;28;20487;-75
2023/07/05 04:36:09;;;;;;;0.40;0.40;;;21.90;66.70;;;;;;5046728;28;20137;-75
2023/07/05 04:38:35;;;;;;;0.60;0.60;;;21.90;67.40;;;;;;5047552;28;20185;-75
2023/07/05 04:41:00;;;;;;;0.50;0.50;;;21.90;66.60;;;;;;5022548;28;20536;-75
2023/07/05 04:43:26;;;;;;;0.90;0.90;;;21.90;66.50;;;;;;5027815;28;20053;-75
2023/07/05 04:45:53;;;;;;;0.60;0.60;;;21.90;66.60;;;;;;5045194;28;20086;-75
2023/07/05 04:48:19;;;;;;;0.50;0.50;;;21.90;67.50;;;;;;5038827;28;20098;-75
2023/07/05 04:50:47;;;;;;;0.68;0.68;;;21.90;66.80;;;;;;5028083;28;20246;-75
2023/07/05 04:53:13;;;;;;;0.40;0.40;;;21.90;66.80;;;;;;5022313;28;20041;-75
2023/07/05 04:55:46;;;;;;;0.70;0.70;;;21.90;66.80;;;;;;5023479;28;20049;-74
2023/07/05 04:58:12;;;;;;;0.47;0.47;;;21.90;66.70;;;;;;5008705;28;20140;-75
2023/07/05 05:00:38;;;;;;;0.50;0.50;;;21.90;66.80;;;;;;5045244;28;20053;-75
2023/07/05 05:03:03;;;;;;;0.50;0.50;;;21.90;66.80;;;;;;5040449;28;20533;-77
2023/07/05 05:05:29;;;;;;;0.47;0.47;;;21.90;66.90;;;;;;5046707;28;20128;-75
2023/07/05 05:07:54;;;;;;;0.70;0.70;;;21.90;66.80;;;;;;5045452;28;20137;-75
2023/07/05 05:10:20;;;;;;;0.40;0.40;;;21.90;66.80;;;;;;5039552;28;20136;-76
2023/07/05 05:12:46;;;;;;;0.57;0.57;;;21.90;66.60;;;;;;5015632;28;20072;-75
2023/07/05 05:15:11;;;;;;;0.50;0.50;;;22.00;66.90;;;;;;5026335;28;20118;-76
2023/07/05 05:17:37;;;;;;;0.70;0.70;;;22.00;66.30;;;;;;5026286;28;20041;-76
2023/07/05 05:20:03;;;;;;;0.75;0.70;;;21.90;62.70;;;;;;5026748;28;20829;-76
2023/07/05 05:22:29;;;;;;;1.15;0.73;;;21.60;61.10;;;;;;5026539;28;20045;-75
2023/07/05 05:24:54;;;;;;;3.60;0.88;;;20.60;61.70;;;;;;5048033;28;20052;-75
2023/07/05 05:27:20;;;;;;;3.80;0.90;;;20.00;63.40;;;;;;5023755;28;20049;-75
2023/07/05 05:29:45;;;;;;;3.45;0.98;;;19.60;64.20;;;;;;5026083;28;20057;-74
2023/07/05 05:32:11;;;;;;;2.75;0.98;;;19.20;65.30;;;;;;5023371;28;20511;-75
2023/07/05 05:34:36;;;;;;;3.00;1.02;;;19.30;65.70;;;;;;5026879;28;20426;-75
2023/07/05 05:37:02;;;;;;;3.53;1.20;;;19.10;66.20;;;;;;5040280;28;20128;-75
2023/07/05 05:39:28;;;;;;;4.35;1.05;;;19.00;66.40;;;;;;5045543;28;20103;-75
2023/07/05 05:41:53;;;;;;;5.30;1.05;;;19.00;66.60;;;;;;5048702;28;20526;-74
2023/07/05 05:44:19;;;;;;;2.22;0.85;;;18.80;67.40;;;;;;5043601;28;20383;-75
2023/07/05 05:46:45;;;;;;;3.03;1.33;;;18.80;67.70;;;;;;5047202;28;20048;-74
2023/07/05 05:49:10;;;;;;;3.08;0.80;;;18.60;68.00;;;;;;5029545;28;20046;-75
2023/07/05 05:51:36;;;;;;;1.48;0.80;;;18.60;68.10;;;;;;5025732;28;20048;-74
2023/07/05 05:54:01;;;;;;;3.85;1.08;;;18.70;68.30;;;;;;5020203;28;20507;-75
2023/07/05 05:56:27;;;;;;;2.83;1.00;;;18.60;68.40;;;;;;5023722;28;20045;-75
2023/07/05 05:58:52;;;;;;;7.68;1.48;;;18.50;68.40;;;;;;5022197;28;20079;-74
2023/07/05 06:01:19;;;;;;;3.63;0.77;;;18.50;68.90;;;;;;5024182;28;20689;-74
2023/07/05 06:03:45;;;;;;;1.45;0.73;;;18.60;69.10;;;;;;5021644;28;20099;-74
2023/07/05 06:06:11;;;;;;;2.00;0.80;;;18.70;68.80;;;;;;5024816;28;20053;-74
2023/07/05 06:08:36;;;;;;;3.38;0.80;;;18.60;68.90;;;;;;5039649;28;20525;-76
2023/07/05 06:11:03;;;;;;;4.05;1.08;;;18.50;69.30;;;;;;5029966;28;20037;-76
2023/07/05 06:13:28;;;;;;;3.45;1.00;;;18.60;69.30;;;;;;5046120;28;20038;-75
2023/07/05 06:15:58;;;;;;;1.23;0.75;;;18.50;69.70;;;;;;5047498;28;20044;-75
2023/07/05 06:18:25;;;;;;;1.58;0.70;;;18.80;69.80;;;;;;5041076;28;20090;-76
2023/07/05 06:20:51;;;;;;;2.22;0.65;;;19.10;68.80;;;;;;5047167;28;20040;-75
2023/07/05 06:23:17;;;;;;;2.60;1.10;;;19.40;68.20;;;;;;5030783;28;20137;-74
2023/07/05 06:25:47;;;;;;;4.10;0.80;;;19.60;67.50;;;;;;5035244;28;20049;-74
2023/07/05 06:28:12;;;;;;;2.22;0.70;;;19.80;66.90;;;;;;5028975;28;20052;-75
2023/07/05 06:30:38;;;;;;;1.00;0.70;;;20.00;66.10;;;;;;5032984;28;20041;-75
2023/07/05 06:33:03;;;;;;;1.77;0.80;;;20.10;65.90;;;;;;5030254;28;20053;-74
2023/07/05 06:35:30;;;;;;;1.60;0.65;;;20.20;65.70;;;;;;5027174;28;20044;-75
2023/07/05 06:37:56;;;;;;;1.50;0.70;;;20.20;65.80;;;;;;5033247;28;20052;-74
2023/07/05 06:40:22;;;;;;;3.28;1.20;;;20.30;65.50;;;;;;5025812;28;20050;-75
2023/07/05 06:42:47;;;;;;;1.45;0.60;;;20.30;65.50;;;;;;5031127;28;20096;-74
2023/07/05 06:45:13;;;;;;;1.08;0.68;;;20.30;65.50;;;;;;5045244;28;20084;-75
2023/07/05 06:47:38;;;;;;;1.48;0.63;;;20.40;65.60;;;;;;5032831;28;20501;-75
2023/07/05 06:50:05;;;;;;;1.83;0.60;;;20.40;65.50;;;;;;5031932;28;20498;-74
2023/07/05 06:52:31;;;;;;;1.60;0.90;;;20.50;65.60;;;;;;5032092;28;20068;-75
2023/07/05 06:54:56;;;;;;;1.02;0.80;;;20.40;65.50;;;;;;5037322;28;20068;-74
2023/07/05 06:57:22;;;;;;;1.58;1.00;;;20.50;65.70;;;;;;5037060;28;20040;-75
2023/07/05 06:59:47;;;;;;;1.23;0.68;;;20.50;65.80;;;;;;5045470;28;20059;-74
2023/07/05 07:02:13;;;;;;;1.60;0.70;;;20.50;65.90;;;;;;5044343;28;20110;-75
2023/07/05 07:04:38;;;;;;;1.75;0.70;;;20.50;65.90;;;;;;5039204;28;20124;-74
2023/07/05 07:07:05;;;;;;;1.25;1.00;;;20.60;66.00;;;;;;5035817;28;20040;-74
2023/07/05 07:09:33;;;;;;;1.20;0.63;;;20.50;66.00;;;;;;5037728;28;20092;-75
2023/07/05 07:11:58;;;;;;;1.38;0.75;;;20.60;66.00;;;;;;5034634;28;20418;-75
2023/07/05 07:14:25;;;;;;;1.27;0.88;;;20.60;66.00;;;;;;5030944;28;20503;-74
2023/07/05 07:16:51;;;;;;;1.30;0.95;;;20.60;66.00;;;;;;5031301;28;20503;-75
2023/07/05 07:19:17;;;;;;;1.40;0.60;;;20.70;66.10;;;;;;5013013;28;20042;-75
2023/07/05 07:21:43;;;;;;;1.00;0.80;;;20.70;66.10;;;;;;5046901;28;20423;-74
2023/07/05 07:24:09;;;;;;;1.23;0.50;;;20.80;66.10;;;;;;5028647;28;20514;-74
2023/07/05 07:26:34;;;;;;;1.35;0.60;;;20.80;66.10;;;;;;5035007;28;20172;-74
2023/07/05 07:29:00;;;;;;;0.77;0.50;;;20.80;66.10;;;;;;5038543;28;20127;-74
2023/07/05 07:31:27;;;;;;;0.73;0.73;;;20.80;66.20;;;;;;5032551;28;20046;-75
2023/07/05 07:33:53;;;;;;;1.50;0.70;;;20.80;66.30;;;;;;5016725;28;20139;-75
2023/07/05 07:36:29;;;;;;;2.15;0.47;;;20.80;66.30;;;;;;5032818;28;20430;-75
2023/07/05 07:38:55;;;;;;;0.73;0.65;;;20.80;66.40;;;;;;5034775;28;20041;-74
2023/07/05 07:41:22;;;;;;;1.20;0.50;;;20.90;66.40;;;;;;5030150;28;20060;-74
2023/07/05 07:43:52;;;;;;;0.95;0.68;;;20.90;66.50;;;;;;5029490;28;20068;-75
2023/07/05 07:46:20;;;;;;;1.20;0.70;;;20.90;66.60;;;;;;5031321;28;20037;-75
2023/07/05 07:48:47;;;;;;;1.10;0.38;;;21.00;66.70;;;;;;5048364;28;20495;-74
2023/07/05 07:51:13;;;;;;;1.00;0.50;;;21.00;66.60;;;;;;5025698;28;20190;-75
2023/07/05 07:53:38;;;;;;;0.88;0.40;;;21.00;66.50;;;;;;5050935;28;20123;-74
2023/07/05 07:56:13;;;;;;;1.52;0.55;;;21.00;66.50;;;;;;5032816;28;20034;-74
2023/07/05 07:58:39;;;;;;;0.50;0.50;;;21.00;66.40;;;;;;5046652;28;20036;-74
2023/07/05 08:01:16;;;;;;;2.55;0.57;;;21.10;66.50;;;;;;5051833;28;20048;-74
2023/07/05 08:03:42;;;;;;;0.75;0.47;;;21.10;66.50;;;;;;5028376;28;20036;-74
2023/07/05 08:06:08;;;;;;;0.55;0.38;;;21.10;66.30;;;;;;5045617;28;20136;-74
2023/07/05 08:08:34;;;;;;;0.93;0.80;;;21.10;66.20;;;;;;5029841;28;20033;-74
2023/07/05 08:11:02;;;;;;;0.95;0.63;;;21.10;66.30;;;;;;5034482;28;20071;-74
2023/07/05 08:13:28;;;;;;;0.47;0.40;;;21.20;66.20;;;;;;5049280;28;20041;-75
2023/07/05 08:15:53;;;;;;;0.70;0.40;;;21.20;66.10;;;;;;5028790;28;20050;-74
2023/07/05 08:18:19;;;;;;;1.02;0.60;;;21.20;66.10;;;;;;5028874;28;20086;-75
2023/07/05 08:20:44;;;;;;;0.55;0.40;;;21.20;66.10;;;;;;5032083;28;20028;-74
2023/07/05 08:23:11;;;;;;;0.40;0.40;;;21.30;66.80;;;;;;5048502;28;20044;-74
2023/07/05 08:25:39;;;;;;;0.70;0.57;;;21.30;65.80;;;;;;5051663;28;20183;-75
2023/07/05 08:28:05;;;;;;;0.95;0.40;;;21.30;66.00;;;;;;5054558;28;20117;-75
2023/07/05 08:30:31;;;;;;;0.90;0.60;;;21.30;66.10;;;;;;5045424;28;20041;-74
2023/07/05 08:32:57;;;;;;;0.52;0.52;;;21.40;66.20;;;;;;5038188;28;20048;-74
2023/07/05 08:35:22;;;;;;;0.73;0.40;;;21.40;66.00;;;;;;5044445;28;20065;-75
2023/07/05 08:37:48;;;;;;;0.52;0.50;;;21.40;66.10;;;;;;5017908;28;20049;-75
2023/07/05 08:40:14;;;;;;;0.52;0.52;;;21.40;66.60;;;;;;5051800;28;20063;-74
2023/07/05 08:42:58;;;;;;;1.13;0.60;;;21.40;66.10;;;;;;5017252;28;20052;-75
2023/07/05 08:45:28;;;;;;;1.85;0.68;;;21.50;65.90;;;;;;5062894;28;20490;-75
2023/07/05 08:47:55;;;;;;;1.65;0.50;;;21.50;65.70;;;;;;5048544;28;20076;-74
2023/07/05 08:50:27;;;;;;;0.52;0.40;;;21.50;65.70;;;;;;5063567;28;20037;-74
2023/07/05 08:52:59;;;;;;;1.13;0.60;;;21.50;65.90;;;;;;5032673;28;20038;-74
2023/07/05 08:55:42;;;;;;;0.63;0.45;;;21.50;65.80;;;;;;5025952;28;20045;-75
2023/07/05 08:58:08;;;;;;;0.43;0.40;;;21.60;65.50;;;;;;5067001;28;20074;-75
2023/07/05 09:00:46;;;;;;;0.30;0.30;;;21.60;65.50;;;;;;5054274;28;20037;-75
2023/07/05 09:03:11;;;;;;;0.40;0.35;;;21.60;65.40;;;;;;5066214;28;20402;-75
2023/07/05 09:05:46;;;;;;;0.70;0.50;;;21.70;65.60;;;;;;5044139;28;20051;-75
2023/07/05 09:08:38;;;;;;;0.63;0.50;;;21.70;65.60;;;;;;5032981;28;20601;-74
2023/07/05 09:11:37;;;;;;;0.68;0.52;;;21.70;65.60;;;;;;5025250;28;20132;-74
2023/07/05 09:14:19;;;;;;;0.60;0.60;;;21.70;65.60;;;;;;4989350;28;20045;-75
2023/07/05 09:17:09;;;;;;;0.80;0.60;;;21.70;65.70;;;;;;4975087;28;20051;-74
2023/07/05 09:19:44;;;;;;;1.33;0.50;;;21.70;65.60;;;;;;4973043;28;20133;-75
2023/07/05 09:22:11;;;;;;;0.95;0.50;;;21.70;65.50;;;;;;4974089;28;20046;-74
2023/07/05 09:24:39;;;;;;;0.50;0.50;;;21.70;66.30;;;;;;4972895;28;20049;-74
2023/07/05 09:27:16;;;;;;;0.35;0.35;;;21.80;65.50;;;;;;4976762;28;20034;-74
2023/07/05 09:29:45;;;;;;;0.50;0.50;;;21.80;65.50;;;;;;4977029;28;20244;-74
2023/07/05 09:32:18;;;;;;;0.50;0.50;;;21.80;65.50;;;;;;4971235;28;20035;-74
2023/07/05 09:34:56;;;;;;;1.05;0.50;;;21.80;65.40;;;;;;4973813;28;20044;-75
2023/07/05 09:37:23;;;;;;;0.50;0.50;;;21.80;65.40;;;;;;4975530;28;20105;-75
2023/07/05 09:40:15;;;;;;;1.27;0.60;;;21.80;65.40;;;;;;4975798;28;20041;-74
2023/07/05 09:42:59;;;;;;;0.50;0.45;;;21.80;65.40;;;;;;4975428;28;20057;-75
2023/07/05 09:45:25;;;;;;;;;;;21.90;65.40;;;;;;4975702;28;20562;-75
2023/07/05 09:47:57;;;;;;;0.90;0.50;;;21.90;65.40;;;;;;4988051;28;19910;-75
2023/07/05 09:50:23;;;;;;;0.55;0.50;;;21.90;65.30;;;;;;4994501;28;20057;-75
2023/07/05 09:52:51;;;;;;;1.00;0.70;;;21.90;65.30;;;;;;5035267;28;20054;-74
2023/07/05 09:55:17;;;;;;;0.55;0.55;;;21.90;65.30;;;;;;5032806;28;20064;-74
2023/07/05 09:57:43;;;;;;;1.05;0.55;;;21.90;65.30;;;;;;5033051;28;20174;-75
2023/07/05 10:00:23;;;;;;;0.98;0.60;;;22.00;65.30;;;;;;5024762;28;20523;-74
2023/07/05 10:02:48;;;;;;;0.57;0.55;;;22.00;65.10;;;;;;5045921;28;20215;-75
2023/07/05 10:05:15;;;;;;;1.30;0.70;;;22.00;65.20;;;;;;5031561;28;20053;-75
2023/07/05 10:07:55;;;;;;;1.23;0.65;;;22.00;65.10;;;;;;5011712;28;20049;-75
2023/07/05 10:10:20;;;;;;;1.75;0.65;;;22.00;65.00;;;;;;5023350;28;20030;-74
2023/07/05 10:12:47;;;;;;;0.40;0.40;;;22.00;65.00;;;;;;5023934;28;20040;-74
2023/07/05 10:15:21;;;;;;;1.25;0.50;;;22.00;65.00;;;;;;4675275;28;10000170;-74
2023/07/05 10:17:47;;;;;;;0.65;0.50;;;22.00;64.80;;;;;;5023345;28;20080;-74
2023/07/05 10:20:23;;;;;;;0.73;0.50;;;22.10;64.80;;;;;;5029424;28;20045;-74
2023/07/05 10:22:58;;;;;;;0.50;0.45;;;22.10;64.80;;;;;;5033686;28;20050;-74
2023/07/05 10:25:24;;;;;;;0.40;0.40;;;22.10;64.80;;;;;;5032449;28;20041;-75
2023/07/05 10:27:50;;;;;;;0.47;0.47;;;22.10;65.00;;;;;;5050348;28;20406;-74
2023/07/05 10:30:20;;;;;;;0.82;0.60;;;22.10;64.80;;;;;;5048844;28;20460;-74
2023/07/05 10:32:50;;;;;;;0.70;0.60;;;22.10;65.80;;;;;;5061982;28;20445;-74
2023/07/05 10:35:24;;;;;;;0.77;0.52;;;22.10;64.90;;;;;;5068323;28;20040;-74
2023/07/05 10:37:50;;;;;;;;;;;22.10;65.00;;;;;;5029772;28;20120;-74
2023/07/05 10:40:16;;;;;;;0.43;0.30;;;22.10;65.00;;;;;;5033205;28;20016;-74
2023/07/05 10:42:48;;;;;;;0.43;0.43;;;22.10;64.90;;;;;;5035133;28;20053;-74
2023/07/05 10:45:15;;;;;;;0.38;0.32;;;22.10;65.10;;;;;;5031794;28;20037;-73
2023/07/05 10:47:40;;;;;;;1.15;0.60;;;22.10;65.00;;;;;;5045309;28;20073;-74
2023/07/05 10:50:06;;;;;;;1.95;0.50;;;22.10;65.00;;;;;;5026961;28;20041;-74
2023/07/05 10:52:38;;;;;;;0.57;0.57;;;22.10;65.00;;;;;;5010591;28;20058;-74
2023/07/05 10:55:21;;;;;;;0.70;0.50;;;22.10;65.10;;;;;;5046036;28;20038;-74
2023/07/05 10:58:20;;;;;;;1.83;0.40;;;22.10;65.10;;;;;;5051368;28;20053;-74
2023/07/05 11:00:55;;;;;;;0.40;0.40;;;22.10;65.10;;;;;;5034607;28;20049;-75
2023/07/05 11:03:26;;;;;;;0.75;0.40;;;22.10;64.90;;;;;;5027596;28;20132;-74
2023/07/05 11:05:57;;;;;;;0.70;0.70;;;22.10;64.90;;;;;;5011557;28;20510;-75
2023/07/05 11:08:27;;;;;;;1.23;0.60;;;22.10;64.80;;;;;;5023927;28;20103;-74
2023/07/05 11:10:54;;;;;;;0.68;0.50;;;22.20;64.90;;;;;;5031604;28;20131;-74
2023/07/05 11:13:20;;;;;;;0.50;0.50;;;22.20;64.70;;;;;;5034222;28;20049;-74
2023/07/05 11:15:46;;;;;;;0.52;0.50;;;22.20;64.90;;;;;;5031443;28;20054;-74
2023/07/05 11:18:18;;;;;;;0.77;0.50;;;22.20;64.70;;;;;;5008505;28;20426;-74
2023/07/05 11:20:49;;;;;;;0.52;0.50;;;22.10;64.80;;;;;;5023703;28;20052;-74
2023/07/05 11:23:43;;;;;;;0.52;0.40;;;22.20;64.90;;;;;;5029423;28;20065;-74
2023/07/05 11:26:09;;;;;;;0.50;0.50;;;22.20;64.50;;;;;;5025987;28;20519;-74
2023/07/05 11:28:36;;;;;;;0.68;0.60;;;22.20;64.80;;;;;;5028906;28;20507;-74
2023/07/05 11:31:03;;;;;;;0.50;0.50;;;22.20;64.40;;;;;;5032317;28;20072;-74
2023/07/05 11:33:28;;;;;;;0.95;0.85;;;22.30;64.50;;;;;;5029145;28;20106;-75
2023/07/05 11:36:18;;;;;;;0.57;0.57;;;22.30;64.60;;;;;;5021679;28;20828;-75
2023/07/05 11:38:44;;;;;;;0.50;0.45;;;22.30;64.70;;;;;;5020701;28;20132;-75
2023/07/05 11:41:10;;;;;;;0.70;0.70;;;22.30;64.60;;;;;;5024959;28;20136;-74
2023/07/05 11:43:38;;;;;;;0.68;0.63;;;22.30;64.50;;;;;;5011408;28;20042;-75
2023/07/05 11:46:34;;;;;;;0.60;0.60;;;22.30;64.40;;;;;;5031164;28;20052;-74
2023/07/05 11:49:20;;;;;;;0.60;0.60;;;22.30;64.40;;;;;;5041094;28;20072;-74
2023/07/05 11:51:45;;;;;;;0.63;0.63;;;22.30;64.40;;;;;;5023716;28;20689;-74
2023/07/05 11:54:11;;;;;;;0.50;0.50;;;22.30;64.60;;;;;;5043798;28;20040;-74
2023/07/05 11:56:37;;;;;;;0.88;0.50;;;22.30;64.50;;;;;;5058038;28;20540;-74
2023/07/05 11:59:03;;;;;;;0.60;0.60;;;22.30;64.50;;;;;;5047347;28;20033;-74
2023/07/05 12:01:31;;;;;;;0.50;0.43;;;22.30;64.50;;;;;;5015852;28;20064;-74
2023/07/05 12:04:03;;;;;;;0.63;0.63;;;22.30;64.50;;;;;;5028161;28;20034;-74
2023/07/05 12:06:38;;;;;;;0.60;0.52;;;22.40;64.40;;;;;;5027578;28;20150;-75
2023/07/05 12:09:04;;;;;;;0.60;0.60;;;22.30;64.40;;;;;;5030006;28;20136;-74
2023/07/05 12:11:35;;;;;;;0.80;0.80;;;22.30;64.50;;;;;;5031691;28;20045;-75
2023/07/05 12:14:02;;;;;;;0.98;0.52;;;22.30;64.70;;;;;;5019944;28;20132;-74
2023/07/05 12:16:28;;;;;;;0.98;0.60;;;22.30;64.60;;;;;;5022339;28;20038;-73
2023/07/05 12:18:53;;;;;;;0.50;0.50;;;22.30;64.90;;;;;;5038554;28;20033;-73
2023/07/05 12:21:19;;;;;;;0.60;0.60;;;22.30;64.80;;;;;;5047571;28;20512;-73
2023/07/05 12:23:45;;;;;;;0.50;0.50;;;22.30;64.50;;;;;;5049085;28;20037;-74
2023/07/05 12:26:26;;;;;;;0.57;0.57;;;22.40;64.60;;;;;;5033171;28;20495;-74
2023/07/05 12:28:51;;;;;;;1.27;0.90;;;22.40;64.50;;;;;;5060504;28;20053;-74
2023/07/05 12:31:19;;;;;;;0.65;0.65;;;22.40;65.40;;;;;;5029272;28;20046;-74
2023/07/05 12:33:54;;;;;;;0.60;0.50;;;22.40;64.60;;;;;;5033895;28;20044;-75
2023/07/05 12:36:20;;;;;;;0.45;0.40;;;22.30;64.60;;;;;;5029405;28;20052;-76
2023/07/05 12:38:48;;;;;;;0.70;0.70;;;22.30;64.60;;;;;;5029387;28;20041;-74
2023/07/05 12:41:24;;;;;;;0.40;0.40;;;22.40;64.30;;;;;;5036160;28;20079;-75
2023/07/05 12:43:58;;;;;;;0.50;0.50;;;22.40;64.30;;;;;;5050005;28;23660;-74
2023/07/05 12:46:24;;;;;;;0.70;0.70;;;22.50;64.60;;;;;;5050394;28;20063;-75
2023/07/05 12:48:50;;;;;;;0.63;0.63;;;22.50;64.40;;;;;;5055966;28;20057;-75
2023/07/05 12:51:19;;;;;;;0.60;0.60;;;22.50;64.40;;;;;;5051709;28;20052;-75
2023/07/05 12:53:49;;;;;;;0.68;0.68;;;22.40;64.50;;;;;;5035975;28;20040;-76
2023/07/05 12:56:17;;;;;;;0.60;0.60;;;22.40;64.60;;;;;;5035747;28;20043;-76